createdAt,value
2018-11-01T00:01:25.692Z,12.93
2018-11-01T00:03:54.340Z,7.83
2018-11-01T00:06:23.074Z,6.30
2018-11-01T00:08:51.745Z,11.37
2018-11-01T00:11:20.327Z,10.13
2018-11-01T00:13:49.613Z,7.13
2018-11-01T00:16:18.228Z,10.50
2018-11-01T00:18:47.997Z,9.40
2018-11-01T00:21:17.199Z,9.33
2018-11-01T00:23:46.347Z,11.23
2018-11-01T00:26:15.766Z,7.50
2018-11-01T00:28:46.037Z,6.40
2018-11-01T00:31:15.054Z,6.57
2018-11-01T00:33:44.449Z,8.13
2018-11-01T00:36:13.304Z,9.37
2018-11-01T00:38:42.631Z,8.23
2018-11-01T00:41:11.438Z,7.23
2018-11-01T00:43:40.119Z,10.27
2018-11-01T00:46:09.458Z,7.17
2018-11-01T00:48:38.700Z,10.87
2018-11-01T00:51:07.970Z,10.73
2018-11-01T00:53:37.478Z,13.10
2018-11-01T00:56:06.317Z,8.43
2018-11-01T00:58:35.572Z,11.53
2018-11-01T01:01:05.166Z,11.73
2018-11-01T01:03:33.858Z,11.47
2018-11-01T01:06:03.139Z,10.73
2018-11-01T01:08:32.636Z,6.83
2018-11-01T01:11:01.221Z,11.53
2018-11-01T01:13:29.807Z,9.83
2018-11-01T01:15:59.013Z,10.37
2018-11-01T01:18:28.378Z,8.37
2018-11-01T01:20:57.592Z,11.07
2018-11-01T01:23:26.845Z,11.83
2018-11-01T01:25:56.077Z,12.80
2018-11-01T01:28:24.924Z,9.13
2018-11-01T01:30:53.585Z,8.57
2018-11-01T01:33:22.408Z,10.83
2018-11-01T01:35:51.119Z,7.97
2018-11-01T01:38:20.006Z,10.23
2018-11-01T01:40:49.349Z,11.73
2018-11-01T01:43:17.881Z,14.17
2018-11-01T01:45:46.684Z,10.27
2018-11-01T01:48:15.309Z,12.33
2018-11-01T01:50:43.926Z,9.07
2018-11-01T01:53:12.333Z,9.93
2018-11-01T01:55:41.102Z,10.40
2018-11-01T01:58:09.871Z,10.47
2018-11-01T02:00:39.048Z,8.40
2018-11-01T02:03:08.422Z,9.83
2018-11-01T02:05:37.166Z,10.13
2018-11-01T02:08:06.681Z,9.57
2018-11-01T02:10:35.345Z,9.13
2018-11-01T02:13:03.945Z,10.67
2018-11-01T02:15:33.401Z,11.57
2018-11-01T02:18:02.821Z,12.70
2018-11-01T02:20:31.499Z,10.80
2018-11-01T02:23:00.111Z,11.77
2018-11-01T02:25:28.657Z,11.10
2018-11-01T02:28:02.583Z,8.20
2018-11-01T02:30:31.159Z,8.57
2018-11-01T02:32:59.687Z,9.50
2018-11-01T02:35:28.246Z,12.10
2018-11-01T02:37:56.838Z,7.00
2018-11-01T02:40:25.350Z,11.73
2018-11-01T02:42:54.619Z,12.47
2018-11-01T02:45:23.252Z,10.97
2018-11-01T02:47:51.846Z,7.70
2018-11-01T02:50:20.516Z,9.93
2018-11-01T02:52:49.105Z,6.83
2018-11-01T02:55:17.592Z,10.93
2018-11-01T02:57:46.096Z,12.63
2018-11-01T03:00:15.800Z,11.77
2018-11-01T03:02:44.884Z,11.83
2018-11-01T03:05:13.913Z,11.37
2018-11-01T03:07:42.463Z,10.30
2018-11-01T03:10:12.397Z,9.10
2018-11-01T03:12:41.425Z,12.17
2018-11-01T03:15:11.141Z,12.17
2018-11-01T03:17:39.652Z,12.43
2018-11-01T03:20:09.661Z,13.83
2018-11-01T03:22:38.455Z,11.73
2018-11-01T03:25:07.628Z,14.67
2018-11-01T03:27:36.958Z,11.07
2018-11-01T03:30:06.120Z,12.97
2018-11-01T03:32:34.687Z,12.20
2018-11-01T03:35:03.210Z,13.07
2018-11-01T03:37:31.880Z,11.73
2018-11-01T03:40:00.377Z,11.63
2018-11-01T03:42:29.122Z,14.50
2018-11-01T03:44:57.645Z,7.47
2018-11-01T03:47:26.972Z,14.20
2018-11-01T03:49:56.221Z,15.13
2018-11-01T03:52:24.717Z,11.20
2018-11-01T03:54:53.196Z,12.10
2018-11-01T03:57:21.738Z,10.47
2018-11-01T03:59:50.236Z,7.40
2018-11-01T04:02:19.351Z,12.60
2018-11-01T04:04:47.797Z,9.20
2018-11-01T04:07:16.373Z,12.13
2018-11-01T04:09:45.545Z,10.70
2018-11-01T04:12:14.182Z,10.23
2018-11-01T04:14:42.699Z,7.27
2018-11-01T04:17:11.299Z,7.77
2018-11-01T04:19:39.814Z,9.93
2018-11-01T04:22:09.188Z,6.13
2018-11-01T04:24:38.044Z,6.20
2018-11-01T04:27:06.718Z,11.60
2018-11-01T04:29:36.205Z,13.37
2018-11-01T04:32:05.125Z,11.43
2018-11-01T04:34:33.642Z,11.80
2018-11-01T04:37:02.183Z,11.40
2018-11-01T04:39:31.737Z,11.90
2018-11-01T04:42:00.200Z,8.70
2018-11-01T04:44:28.776Z,10.20
2018-11-01T04:46:57.838Z,11.07
2018-11-01T04:49:27.055Z,12.10
2018-11-01T04:51:55.553Z,8.33
2018-11-01T04:54:24.080Z,11.13
2018-11-01T04:56:53.098Z,10.63
2018-11-01T04:59:21.603Z,10.73
2018-11-01T05:01:50.094Z,12.13
2018-11-01T05:04:19.255Z,13.37
2018-11-01T05:06:48.382Z,15.50
2018-11-01T05:09:16.883Z,14.03
2018-11-01T05:11:45.326Z,9.93
2018-11-01T05:14:13.973Z,18.63
2018-11-01T05:16:42.477Z,14.33
2018-11-01T05:19:11.007Z,16.23
2018-11-01T05:21:39.515Z,17.93
2018-11-01T05:24:08.012Z,18.13
2018-11-01T05:26:36.489Z,9.47
2018-11-01T05:29:05.133Z,19.40
2018-11-01T05:31:40.342Z,16.07
2018-11-01T05:34:08.811Z,20.13
2018-11-01T05:36:37.376Z,17.70
2018-11-01T05:39:08.527Z,17.53
2018-11-01T05:41:37.115Z,20.17
2018-11-01T05:44:05.681Z,19.80
2018-11-01T05:46:34.197Z,18.67
2018-11-01T05:49:03.242Z,12.23
2018-11-01T05:51:31.729Z,12.07
2018-11-01T05:54:00.307Z,9.00
2018-11-01T05:56:28.886Z,9.73
2018-11-01T05:58:57.410Z,11.37
2018-11-01T06:01:31.995Z,12.70
2018-11-01T06:04:00.683Z,17.57
2018-11-01T06:06:29.172Z,15.23
2018-11-01T06:08:57.701Z,9.87
2018-11-01T06:11:26.191Z,16.97
2018-11-01T06:13:54.786Z,18.23
2018-11-01T06:16:23.318Z,15.27
2018-11-01T06:18:51.862Z,16.50
2018-11-01T06:21:20.807Z,18.00
2018-11-01T06:23:49.336Z,12.63
2018-11-01T06:26:18.049Z,16.17
2018-11-01T06:28:46.652Z,15.33
2018-11-01T06:31:15.223Z,14.17
2018-11-01T06:33:43.725Z,8.93
2018-11-01T06:36:14.342Z,8.67
2018-11-01T06:38:43.014Z,16.00
2018-11-01T06:41:11.890Z,11.40
2018-11-01T06:43:40.439Z,8.43
2018-11-01T06:46:09.094Z,13.07
2018-11-01T06:48:37.972Z,8.17
2018-11-01T06:51:06.876Z,11.67
2018-11-01T06:53:35.383Z,7.63
2018-11-01T06:56:03.909Z,7.83
2018-11-01T06:58:32.676Z,11.20
2018-11-01T07:01:01.090Z,13.43
2018-11-01T07:03:29.600Z,15.77
2018-11-01T07:05:58.198Z,19.33
2018-11-01T07:08:27.444Z,16.77
2018-11-01T07:10:56.489Z,14.40
2018-11-01T07:13:25.001Z,9.77
2018-11-01T07:15:54.330Z,13.20
2018-11-01T07:18:23.126Z,15.87
2018-11-01T07:20:51.636Z,11.67
2018-11-01T07:23:20.146Z,14.47
2018-11-01T07:25:49.310Z,17.03
2018-11-01T07:28:17.769Z,10.60
2018-11-01T07:30:46.447Z,12.37
2018-11-01T07:33:14.955Z,14.63
2018-11-01T07:35:43.449Z,15.33
2018-11-01T07:38:11.900Z,8.30
2018-11-01T07:40:40.521Z,12.03
2018-11-01T07:43:09.158Z,10.93
2018-11-01T07:45:37.623Z,11.93
2018-11-01T07:48:06.506Z,10.47
2018-11-01T07:50:35.173Z,17.00
2018-11-01T07:53:03.739Z,12.70
2018-11-01T07:55:32.519Z,12.37
2018-11-01T07:58:01.085Z,10.53
2018-11-01T08:00:29.703Z,13.63
2018-11-01T08:02:58.298Z,8.90
2018-11-01T08:05:27.551Z,7.57
2018-11-01T08:07:56.112Z,8.83
2018-11-01T08:10:24.807Z,10.47
2018-11-01T08:12:53.329Z,10.70
2018-11-01T08:15:22.259Z,13.03
2018-11-01T08:17:50.789Z,10.37
2018-11-01T08:20:19.588Z,11.80
2018-11-01T08:22:47.918Z,13.17
2018-11-01T08:25:16.459Z,12.20
2018-11-01T08:27:45.069Z,10.37
2018-11-01T08:30:15.994Z,6.00
2018-11-01T08:32:44.572Z,6.53
2018-11-01T08:35:13.357Z,10.20
2018-11-01T08:37:42.973Z,6.30
2018-11-01T08:40:12.080Z,6.40
2018-11-01T08:42:41.825Z,7.50
2018-11-01T08:45:11.786Z,8.27
2018-11-01T08:47:40.831Z,8.57
2018-11-01T08:50:10.928Z,9.77
2018-11-01T08:52:40.143Z,10.93
2018-11-01T08:55:09.115Z,6.40
2018-11-01T08:57:37.613Z,6.23
2018-11-01T09:00:06.883Z,9.33
2018-11-01T09:02:36.215Z,10.03
2018-11-01T09:05:05.185Z,6.93
2018-11-01T09:07:34.142Z,7.47
2018-11-01T09:10:03.737Z,9.17
2018-11-01T09:12:32.257Z,7.70
2018-11-01T09:15:00.883Z,5.73
2018-11-01T09:17:30.176Z,4.60
2018-11-01T09:19:58.787Z,11.80
2018-11-01T09:22:27.939Z,10.00
2018-11-01T09:24:56.693Z,11.50
2018-11-01T09:27:25.753Z,9.67
2018-11-01T09:29:54.455Z,8.07
2018-11-01T09:32:29.376Z,7.80
2018-11-01T09:34:57.887Z,9.37
2018-11-01T09:37:26.601Z,9.17
2018-11-01T09:39:55.309Z,7.77
2018-11-01T09:42:23.836Z,6.70
2018-11-01T09:44:52.634Z,6.67
2018-11-01T09:47:21.492Z,8.20
2018-11-01T09:49:49.674Z,7.37
2018-11-01T09:52:18.260Z,7.27
2018-11-01T09:54:47.379Z,5.90
2018-11-01T09:57:16.006Z,7.17
2018-11-01T09:59:44.585Z,7.13
2018-11-01T10:02:13.840Z,8.30
2018-11-01T10:04:42.439Z,7.87
2018-11-01T10:07:10.983Z,8.17
2018-11-01T10:09:39.511Z,7.23
2018-11-01T10:12:08.095Z,10.07
2018-11-01T10:14:37.336Z,8.63
2018-11-01T10:17:06.295Z,10.03
2018-11-01T10:19:34.627Z,8.97
2018-11-01T10:22:03.253Z,6.00
2018-11-01T10:24:31.623Z,7.60
2018-11-01T10:27:00.881Z,10.07
2018-11-01T10:29:29.371Z,7.10
2018-11-01T10:31:58.009Z,8.93
2018-11-01T10:34:26.530Z,10.10
2018-11-01T10:36:55.194Z,9.83
2018-11-01T10:39:30.041Z,9.67
2018-11-01T10:41:59.200Z,9.07
2018-11-01T10:44:28.369Z,12.07
2018-11-01T10:46:57.052Z,10.57
2018-11-01T10:49:25.720Z,8.73
2018-11-01T10:51:54.247Z,9.33
2018-11-01T10:54:22.942Z,8.20
2018-11-01T10:56:52.000Z,8.40
2018-11-01T10:59:21.233Z,8.97
2018-11-01T11:01:55.093Z,8.83
2018-11-01T11:04:24.144Z,10.37
2018-11-01T11:06:52.680Z,7.33
2018-11-01T11:09:21.215Z,9.07
2018-11-01T11:11:49.775Z,10.83
2018-11-01T11:14:18.375Z,9.17
2018-11-01T11:16:46.937Z,8.57
2018-11-01T11:19:15.535Z,9.60
2018-11-01T11:21:44.058Z,6.60
2018-11-01T11:24:12.944Z,8.60
2018-11-01T11:26:41.620Z,8.33
2018-11-01T11:29:10.182Z,7.63
2018-11-01T11:31:38.714Z,9.13
2018-11-01T11:34:07.205Z,6.07
2018-11-01T11:36:35.805Z,7.13
2018-11-01T11:39:06.654Z,7.63
2018-11-01T11:41:35.752Z,8.33
2018-11-01T11:44:04.722Z,7.97
2018-11-01T11:46:33.351Z,5.40
2018-11-01T11:49:02.074Z,9.00
2018-11-01T11:51:31.520Z,6.97
2018-11-01T11:53:59.957Z,5.67
2018-11-01T11:56:28.593Z,5.87
2018-11-01T11:58:57.201Z,7.07
2018-11-01T12:01:26.604Z,7.17
2018-11-01T12:03:55.846Z,6.37
2018-11-01T12:06:25.210Z,8.43
2018-11-01T12:08:53.515Z,6.07
2018-11-01T12:11:22.136Z,5.10
2018-11-01T12:13:50.626Z,6.83
2018-11-01T12:16:19.273Z,6.07
2018-11-01T12:18:48.035Z,6.60
2018-11-01T12:21:17.260Z,6.57
2018-11-01T12:23:45.901Z,6.00
2018-11-01T12:26:14.533Z,6.37
2018-11-01T12:28:43.599Z,5.67
2018-11-01T12:31:12.028Z,4.47
2018-11-01T12:33:41.782Z,4.00
2018-11-01T12:36:10.367Z,7.83
2018-11-01T12:38:38.946Z,3.37
2018-11-01T12:41:07.461Z,5.53
2018-11-01T12:43:36.025Z,3.10
2018-11-01T12:46:04.601Z,3.20
2018-11-01T12:48:33.165Z,2.77
2018-11-01T12:51:01.663Z,4.00
2018-11-01T12:53:30.349Z,2.23
2018-11-01T12:55:59.803Z,3.77
2018-11-01T12:58:28.332Z,1.90
2018-11-01T13:00:56.955Z,2.27
2018-11-01T13:03:25.562Z,3.10
2018-11-01T13:05:54.125Z,1.80
2018-11-01T13:08:22.678Z,4.00
2018-11-01T13:10:51.457Z,3.73
2018-11-01T13:13:19.771Z,2.87
2018-11-01T13:15:48.432Z,2.43
2018-11-01T13:18:17.023Z,3.07
2018-11-01T13:20:45.583Z,4.37
2018-11-01T13:23:14.193Z,3.43
2018-11-01T13:25:42.751Z,2.77
2018-11-01T13:28:11.691Z,3.43
2018-11-01T13:30:40.194Z,2.57
2018-11-01T13:33:08.791Z,2.97
2018-11-01T13:35:37.362Z,4.67
2018-11-01T13:38:06.106Z,4.13
2018-11-01T13:40:34.983Z,4.33
2018-11-01T13:43:03.196Z,5.07
2018-11-01T13:45:31.839Z,3.83
2018-11-01T13:48:00.525Z,3.13
2018-11-01T13:50:28.999Z,2.07
2018-11-01T13:52:57.492Z,3.07
2018-11-01T13:55:26.034Z,4.23
2018-11-01T13:57:54.497Z,5.03
2018-11-01T14:00:23.013Z,2.77
2018-11-01T14:02:51.529Z,6.57
2018-11-01T14:05:20.079Z,2.83
2018-11-01T14:07:49.482Z,4.17
2018-11-01T14:10:18.132Z,3.27
2018-11-01T14:12:46.588Z,5.63
2018-11-01T14:15:16.386Z,2.73
2018-11-01T14:17:45.136Z,4.63
2018-11-01T14:20:13.968Z,4.30
2018-11-01T14:22:42.458Z,3.90
2018-11-01T14:25:12.366Z,2.60
2018-11-01T14:27:42.117Z,3.73
2018-11-01T14:30:13.115Z,2.53
2018-11-01T14:32:41.717Z,2.50
2018-11-01T14:35:11.018Z,2.07
2018-11-01T14:37:39.585Z,3.17
2018-11-01T14:40:10.090Z,4.30
2018-11-01T14:42:38.743Z,2.90
2018-11-01T14:45:07.686Z,3.60
2018-11-01T14:47:37.020Z,4.10
2018-11-01T14:50:06.726Z,3.60
2018-11-01T14:52:36.190Z,3.20
2018-11-01T14:55:06.187Z,4.70
2018-11-01T14:57:34.833Z,4.27
2018-11-01T15:00:01.961Z,3.10
2018-11-01T15:02:31.363Z,1.70
2018-11-01T15:04:59.896Z,2.27
2018-11-01T15:07:28.454Z,3.60
2018-11-01T15:09:56.958Z,3.03
2018-11-01T15:12:25.645Z,3.33
2018-11-01T15:14:54.421Z,3.83
2018-11-01T15:17:23.481Z,3.90
2018-11-01T15:19:51.975Z,3.93
2018-11-01T15:22:20.709Z,3.43
2018-11-01T15:24:49.937Z,5.13
2018-11-01T15:27:18.550Z,3.30
2018-11-01T15:29:47.144Z,3.67
2018-11-01T15:32:21.029Z,4.87
2018-11-01T15:34:50.127Z,5.40
2018-11-01T15:37:18.720Z,3.17
2018-11-01T15:39:47.422Z,2.97
2018-11-01T15:42:15.910Z,3.73
2018-11-01T15:44:44.478Z,3.63
2018-11-01T15:47:13.151Z,4.87
2018-11-01T15:49:41.743Z,5.03
2018-11-01T15:52:11.069Z,3.47
2018-11-01T15:54:40.190Z,4.83
2018-11-01T15:57:08.741Z,4.63
2018-11-01T15:59:37.385Z,3.13
2018-11-01T16:02:06.415Z,4.47
2018-11-01T16:04:35.587Z,3.33
2018-11-01T16:07:04.165Z,5.70
2018-11-01T16:09:33.503Z,4.47
2018-11-01T16:12:02.739Z,3.87
2018-11-01T16:14:31.271Z,3.80
2018-11-01T16:16:59.782Z,5.63
2018-11-01T16:19:28.347Z,5.07
2018-11-01T16:21:57.648Z,4.97
2018-11-01T16:24:26.859Z,4.40
2018-11-01T16:26:55.390Z,5.50
2018-11-01T16:29:23.874Z,5.40
2018-11-01T16:31:52.418Z,5.83
2018-11-01T16:34:20.951Z,6.00
2018-11-01T16:36:50.317Z,5.17
2018-11-01T16:39:18.971Z,7.77
2018-11-01T16:41:47.599Z,5.97
2018-11-01T16:44:16.730Z,6.03
2018-11-01T16:46:45.424Z,6.10
2018-11-01T16:49:14.024Z,5.30
2018-11-01T16:51:42.577Z,7.70
2018-11-01T16:54:11.448Z,6.47
2018-11-01T16:56:40.004Z,5.53
2018-11-01T16:59:08.564Z,9.63
2018-11-01T17:01:37.116Z,7.70
2018-11-01T17:04:06.243Z,7.60
2018-11-01T17:06:34.746Z,7.93
2018-11-01T17:09:04.406Z,8.00
2018-11-01T17:11:33.001Z,7.30
2018-11-01T17:14:01.600Z,5.50
2018-11-01T17:16:30.134Z,6.30
2018-11-01T17:18:59.525Z,8.00
2018-11-01T17:21:28.219Z,5.77
2018-11-01T17:23:56.726Z,8.37
2018-11-01T17:26:25.494Z,7.07
2018-11-01T17:28:54.046Z,7.23
2018-11-01T17:31:22.689Z,5.23
2018-11-01T17:33:51.809Z,6.60
2018-11-01T17:36:20.292Z,7.80
2018-11-01T17:38:48.813Z,10.47
2018-11-01T17:41:17.297Z,5.17
2018-11-01T17:43:45.886Z,4.37
2018-11-01T17:46:14.561Z,8.97
2018-11-01T17:48:43.076Z,8.87
2018-11-01T17:51:11.651Z,8.13
2018-11-01T17:53:40.247Z,8.10
2018-11-01T17:56:08.730Z,7.93
2018-11-01T17:58:37.359Z,5.03
2018-11-01T18:01:07.077Z,8.23
2018-11-01T18:03:35.754Z,4.63
2018-11-01T18:06:04.300Z,5.70
2018-11-01T18:08:33.800Z,8.23
2018-11-01T18:11:02.227Z,6.77
2018-11-01T18:13:30.773Z,6.40
2018-11-01T18:15:59.538Z,6.90
2018-11-01T18:18:28.109Z,11.53
2018-11-01T18:20:56.699Z,10.77
2018-11-01T18:23:25.261Z,7.43
2018-11-01T18:25:53.763Z,10.17
2018-11-01T18:28:22.442Z,9.83
2018-11-01T18:30:51.640Z,10.20
2018-11-01T18:33:21.041Z,13.27
2018-11-01T18:35:49.530Z,8.50
2018-11-01T18:38:18.090Z,14.53
2018-11-01T18:40:46.663Z,14.53
2018-11-01T18:43:15.213Z,17.67
2018-11-01T18:45:44.318Z,16.17
2018-11-01T18:48:12.826Z,16.37
2018-11-01T18:50:41.428Z,16.60
2018-11-01T18:53:09.980Z,16.17
2018-11-01T18:55:38.494Z,21.13
2018-11-01T18:58:07.109Z,20.30
2018-11-01T19:00:35.690Z,22.17
2018-11-01T19:03:04.210Z,17.30
2018-11-01T19:05:32.743Z,18.90
2018-11-01T19:08:01.229Z,18.80
2018-11-01T19:10:29.831Z,14.53
2018-11-01T19:12:58.369Z,13.47
2018-11-01T19:15:27.033Z,14.30
2018-11-01T19:17:55.574Z,17.00
2018-11-01T19:20:24.144Z,9.63
2018-11-01T19:22:52.728Z,10.33
2018-11-01T19:25:21.459Z,10.40
2018-11-01T19:27:49.939Z,12.03
2018-11-01T19:30:18.462Z,15.40
2018-11-01T19:32:47.143Z,22.90
2018-11-01T19:35:15.733Z,16.60
2018-11-01T19:37:44.272Z,7.33
2018-11-01T19:40:14.568Z,5.93
2018-11-01T19:42:43.346Z,7.00
2018-11-01T19:45:11.884Z,6.80
2018-11-01T19:47:40.411Z,2.73
2018-11-01T19:50:10.746Z,4.97
2018-11-01T19:52:39.232Z,2.67
2018-11-01T19:55:07.821Z,4.93
2018-11-01T19:57:36.453Z,4.27
2018-11-01T20:00:06.222Z,4.57
2018-11-01T20:02:35.019Z,4.13
2018-11-01T20:05:04.211Z,4.80
2018-11-01T20:07:32.758Z,5.47
2018-11-01T20:10:01.306Z,4.00
2018-11-01T20:12:29.834Z,6.17
2018-11-01T20:14:58.433Z,2.70
2018-11-01T20:17:26.961Z,5.63
2018-11-01T20:19:55.514Z,6.63
2018-11-01T20:22:24.155Z,2.60
2018-11-01T20:24:52.659Z,3.50
2018-11-01T20:27:21.451Z,4.13
2018-11-01T20:29:49.894Z,6.27
2018-11-01T20:32:18.511Z,3.13
2018-11-01T20:34:47.535Z,3.70
2018-11-01T20:37:16.117Z,4.03
2018-11-01T20:39:44.600Z,2.63
2018-11-01T20:42:13.790Z,5.57
2018-11-01T20:44:42.405Z,4.63
2018-11-01T20:47:11.618Z,4.47
2018-11-01T20:49:40.058Z,4.27
2018-11-01T20:52:08.666Z,4.10
2018-11-01T20:54:37.317Z,5.10
2018-11-01T20:57:06.033Z,5.30
2018-11-01T20:59:34.776Z,3.93
2018-11-01T21:02:03.384Z,3.73
2018-11-01T21:04:31.913Z,3.10
2018-11-01T21:07:00.507Z,5.17
2018-11-01T21:09:29.075Z,4.27
2018-11-01T21:11:58.459Z,3.57
2018-11-01T21:14:27.743Z,3.10
2018-11-01T21:16:56.285Z,2.40
2018-11-01T21:19:24.721Z,3.47
2018-11-01T21:21:53.304Z,2.77
2018-11-01T21:24:21.793Z,5.30
2018-11-01T21:26:50.398Z,2.97
2018-11-01T21:29:18.952Z,2.53
2018-11-01T21:31:47.536Z,5.40
2018-11-01T21:34:16.151Z,2.40
2018-11-01T21:36:44.753Z,3.17
2018-11-01T21:39:13.373Z,3.77
2018-11-01T21:41:41.909Z,2.30
2018-11-01T21:44:10.604Z,4.30
2018-11-01T21:46:39.158Z,1.90
2018-11-01T21:49:07.634Z,4.90
2018-11-01T21:51:36.128Z,3.07
2018-11-01T21:54:04.824Z,2.87
2018-11-01T21:56:33.418Z,3.60
2018-11-01T21:59:01.933Z,2.10
2018-11-01T22:01:30.432Z,3.40
2018-11-01T22:03:58.913Z,3.90
2018-11-01T22:06:27.557Z,3.00
2018-11-01T22:08:56.600Z,2.77
2018-11-01T22:11:25.157Z,4.83
2018-11-01T22:13:53.677Z,3.13
2018-11-01T22:16:22.239Z,3.10
2018-11-01T22:18:50.832Z,3.97
2018-11-01T22:21:19.402Z,3.97
2018-11-01T22:23:47.980Z,5.33
2018-11-01T22:26:16.446Z,4.50
2018-11-01T22:28:45.094Z,3.17
2018-11-01T22:31:13.660Z,4.27
2018-11-01T22:33:42.202Z,2.77
2018-11-01T22:36:10.706Z,2.80
2018-11-01T22:38:40.769Z,3.03
2018-11-01T22:41:09.260Z,3.47
2018-11-01T22:43:37.825Z,3.27
2018-11-01T22:46:06.389Z,2.67
2018-11-01T22:48:35.039Z,2.40
2018-11-01T22:51:03.541Z,3.30
2018-11-01T22:53:32.083Z,3.40
2018-11-01T22:56:00.529Z,4.03
2018-11-01T22:58:29.018Z,2.10
2018-11-01T23:00:57.541Z,4.23
2018-11-01T23:03:25.990Z,5.00
2018-11-01T23:05:54.980Z,2.67
2018-11-01T23:08:24.025Z,3.50
2018-11-01T23:10:52.466Z,2.93
2018-11-01T23:13:21.711Z,2.50
2018-11-01T23:15:50.554Z,2.63
2018-11-01T23:18:19.126Z,2.03
2018-11-01T23:20:47.590Z,2.53
2018-11-01T23:23:16.025Z,4.07
2018-11-01T23:25:44.527Z,4.40
2018-11-01T23:28:12.968Z,3.57
2018-11-01T23:30:41.569Z,3.27
2018-11-01T23:33:10.136Z,3.20
2018-11-01T23:35:38.722Z,2.63
2018-11-01T23:38:12.381Z,2.37
2018-11-01T23:40:46.056Z,1.43
2018-11-01T23:43:19.714Z,1.80
2018-11-01T23:45:53.377Z,1.67
2018-11-01T23:48:21.521Z,2.40
2018-11-01T23:50:56.312Z,1.43
2018-11-01T23:53:27.137Z,2.10
2018-11-01T23:55:56.045Z,1.93
2018-11-01T23:58:24.520Z,1.33
